Managua, Nicaragua

5:51 AM CST on July 31, 2015 (GMT -0600)
Augusto Cesar Sandino | | Change Station
CLOSE
Current Station
Airport
Location: Managua,
Elevation: 184 ft
Nearby Weather Stations

Elev 184 ft 12.14 °N, 86.17 °W | Updated 51 minutes ago

Mostly Cloudy
Mostly Cloudy
75 °F
Feels Like 75 °F
N
5
Wind Variable Wind from SE

Today
High -- | Low -- °F
--% Chance of Precip.
Yesterday
High -- | Low -- °F
Precip. -- in
5:31 AM 6:10 PM
Full, 100% visible
Pressure 29.86 in
Visibility 5.6 miles
Clouds Few 2000 ft
Mostly Cloudy 30000 ft
Dew Point 70 °F
Humidity 83%
Rainfall 0.00 in
Snow Depth Not available.
UV 0 out of 12
Pollen Not available.
Air Quality Not available.
Flu Activity Not available.
METAR MNMG 311100Z 13004KT 9000 FEW020 BKN300 24/21 Q1011 A2988 HZ NOSIG

More Conditions Fewer Conditions

Pressure 29.86 in
Visibility 5.6 miles
Clouds Few 2000 ft
Mostly Cloudy 30000 ft
Dew Point 70 °F
Humidity 83%
Rainfall 0.00 in
Snow Depth Not available.
UV 0 out of 12
Pollen Not available.
Air Quality Not available.
Flu Activity Not available.
METAR MNMG 311100Z 13004KT 9000 FEW020 BKN300 24/21 Q1011 A2988 HZ NOSIG

More Conditions Fewer Conditions

10-Day Weather Forecast

×

Almanac

Astronomy

Jul. 31, 2015 Rise Set
Actual Time
Civil Twilight
Nautical Twilight
Astronomical Twilight
Moon
Length of Visible Light
Length of Day
Tomorrow will be .
, % of the Moon is Illuminated

Today's Extremes

Country Highs Country Lows

Community

WunderPhotos

Upload Photos

1,842,646 photos uploaded!

WunderBlogs® & News

Nearby

Air Quality

  Air Quality AQ Index Pollutant
Not available.

Snow Depth

Station Depth Elevation

Earthquake Activity

City Distance Mag. Time & Date
Minimum magnitude displayed is 2.5.

Coastal Water Temperatures

Place Temperature

Stations

Nearby Weather Stations

Station Location Temp. Windchill Dew Point Humidity Wind Precip. Elev Updated Type